createdAt,value
2022-10-16T00:00:30.824Z,13.00
2022-10-16T00:05:54.194Z,13.00
2022-10-16T00:11:31.179Z,13.10
2022-10-16T00:16:35.415Z,13.30
2022-10-16T00:21:38.937Z,12.50
2022-10-16T00:26:42.459Z,12.30
2022-10-16T00:31:45.980Z,12.30
2022-10-16T00:36:49.405Z,12.20
2022-10-16T00:41:53.023Z,11.40
2022-10-16T00:46:57.895Z,11.10
2022-10-16T00:52:04.759Z,11.60
2022-10-16T00:57:09.260Z,11.00
2022-10-16T01:02:15.933Z,11.60
2022-10-16T01:07:37.641Z,10.70
2022-10-16T01:12:48.837Z,11.30
2022-10-16T01:23:28.931Z,10.80
2022-10-16T01:28:54.455Z,9.80
2022-10-16T01:34:06.120Z,11.00
2022-10-16T01:39:12.550Z,9.70
2022-10-16T01:44:24.051Z,10.00
2022-10-16T01:49:32.817Z,9.90
2022-10-16T01:54:39.110Z,10.20
2022-10-16T01:59:49.861Z,10.00
2022-10-16T02:05:00.213Z,9.40
2022-10-16T02:10:03.964Z,10.10
2022-10-16T02:15:07.999Z,9.40
2022-10-16T02:20:11.925Z,10.20
2022-10-16T02:25:28.712Z,9.90
2022-10-16T02:30:39.539Z,8.60
2022-10-16T02:35:46.170Z,9.90
2022-10-16T02:40:50.264Z,9.60
2022-10-16T02:45:54.090Z,9.20
2022-10-16T02:50:58.383Z,10.20
2022-10-16T02:56:01.746Z,9.20
2022-10-16T03:01:05.527Z,8.30
2022-10-16T03:06:09.097Z,9.20
2022-10-16T03:11:12.515Z,9.10
2022-10-16T03:16:15.936Z,9.70
2022-10-16T03:21:19.457Z,8.80
2022-10-16T03:26:22.873Z,9.10
2022-10-16T03:31:26.396Z,8.90
2022-10-16T03:36:30.116Z,8.30
2022-10-16T03:41:33.917Z,9.00
2022-10-16T03:46:37.466Z,8.70
2022-10-16T03:51:41.293Z,9.20
2022-10-16T03:56:44.814Z,8.60
2022-10-16T04:01:48.234Z,8.40
2022-10-16T04:06:52.163Z,8.90
2022-10-16T04:11:55.682Z,8.20
2022-10-16T04:16:59.109Z,8.80
2022-10-16T04:22:03.752Z,9.00
2022-10-16T04:27:07.067Z,8.70
2022-10-16T04:32:10.894Z,8.40
2022-10-16T04:37:14.319Z,7.90
2022-10-16T04:42:17.733Z,7.70
2022-10-16T04:47:21.149Z,7.00
2022-10-16T04:52:26.280Z,8.10
2022-10-16T04:57:31.226Z,7.00
2022-10-16T05:02:34.746Z,6.90
2022-10-16T05:07:38.711Z,7.40
2022-10-16T05:12:42.163Z,7.80
2022-10-16T05:17:45.854Z,7.90
2022-10-16T05:22:49.887Z,7.10
2022-10-16T05:27:53.306Z,7.80
2022-10-16T05:32:56.827Z,6.90
2022-10-16T05:38:00.246Z,6.80
2022-10-16T05:43:03.766Z,6.50
2022-10-16T05:48:08.003Z,6.30
2022-10-16T05:53:11.729Z,6.50
2022-10-16T05:58:15.454Z,7.00
2022-10-16T06:03:18.981Z,6.60
2022-10-16T06:08:24.142Z,6.10
2022-10-16T06:13:28.132Z,6.50
2022-10-16T06:18:32.326Z,6.60
2022-10-16T06:23:35.896Z,6.50
2022-10-16T06:28:54.338Z,6.70
2022-10-16T06:33:59.173Z,6.60
2022-10-16T06:39:03.167Z,7.00
2022-10-16T06:44:09.303Z,6.40
2022-10-16T06:49:23.819Z,5.70
2022-10-16T06:54:42.125Z,6.10
2022-10-16T06:59:52.106Z,6.10
2022-10-16T07:04:58.741Z,6.80
2022-10-16T07:10:03.860Z,6.60
2022-10-16T07:15:09.265Z,8.60
2022-10-16T07:20:14.108Z,5.60
2022-10-16T07:25:25.420Z,6.30
2022-10-16T07:30:30.395Z,5.50
2022-10-16T07:35:37.772Z,6.00
2022-10-16T07:40:48.157Z,4.90
2022-10-16T07:45:58.264Z,5.60
2022-10-16T07:51:06.800Z,5.10
2022-10-16T07:56:10.935Z,5.70
2022-10-16T08:01:16.456Z,5.50
2022-10-16T08:06:26.975Z,6.10
2022-10-16T08:11:32.195Z,5.30
2022-10-16T08:16:36.125Z,5.40
2022-10-16T08:21:39.547Z,5.20
2022-10-16T08:26:43.372Z,4.90
2022-10-16T08:31:56.627Z,4.40
2022-10-16T08:37:00.240Z,4.40
2022-10-16T08:42:32.411Z,5.10
2022-10-16T08:48:19.526Z,4.90
2022-10-16T08:53:31.512Z,4.50
2022-10-16T08:58:36.441Z,4.20
2022-10-16T09:04:04.267Z,4.30
2022-10-16T09:09:26.024Z,4.80
2022-10-16T09:15:02.475Z,4.60
2022-10-16T09:20:24.247Z,4.70
2022-10-16T09:25:31.728Z,4.10
2022-10-16T09:30:49.761Z,4.30
2022-10-16T09:35:56.072Z,4.50
2022-10-16T09:41:05.729Z,3.80
2022-10-16T09:46:26.986Z,4.10
2022-10-16T09:51:37.983Z,4.30
2022-10-16T09:56:43.015Z,4.10
2022-10-16T10:01:59.669Z,4.40
2022-10-16T10:07:03.541Z,3.90
2022-10-16T10:12:18.971Z,3.90
2022-10-16T10:17:26.552Z,4.30
2022-10-16T10:22:42.575Z,4.20
2022-10-16T10:28:17.672Z,4.10
2022-10-16T10:33:41.627Z,3.80
2022-10-16T10:38:50.933Z,4.10
2022-10-16T10:44:13.283Z,4.40
2022-10-16T10:49:37.715Z,4.10
2022-10-16T10:54:51.645Z,4.80
2022-10-16T11:00:15.832Z,3.80
2022-10-16T11:05:44.338Z,4.50
2022-10-16T11:10:59.510Z,3.60
2022-10-16T11:16:29.227Z,3.60
2022-10-16T11:21:40.525Z,3.30
2022-10-16T11:26:49.194Z,3.10
2022-10-16T11:32:01.587Z,2.60
2022-10-16T11:37:16.020Z,2.50
2022-10-16T11:42:26.642Z,2.40
2022-10-16T11:47:59.317Z,2.10
2022-10-16T11:53:11.402Z,2.40
2022-10-16T11:58:29.192Z,2.10
2022-10-16T12:03:45.869Z,2.20
2022-10-16T12:08:54.794Z,2.30
2022-10-16T12:14:14.152Z,2.10
2022-10-16T12:19:19.648Z,2.50
2022-10-16T12:24:44.221Z,2.80
2022-10-16T12:29:48.969Z,2.80
2022-10-16T12:34:54.155Z,2.70
2022-10-16T12:39:59.583Z,2.60
2022-10-16T12:45:25.199Z,2.40
2022-10-16T12:50:42.557Z,2.20
2022-10-16T12:56:19.197Z,3.30
2022-10-16T13:01:42.993Z,3.10
2022-10-16T13:07:01.862Z,2.20
2022-10-16T13:12:11.626Z,3.00
2022-10-16T13:17:42.573Z,2.90
2022-10-16T13:22:55.208Z,3.00
2022-10-16T13:28:10.511Z,2.60
2022-10-16T13:33:24.020Z,2.40
2022-10-16T13:38:34.118Z,3.40
2022-10-16T13:43:44.602Z,3.00
2022-10-16T13:49:15.218Z,3.00
2022-10-16T13:54:19.774Z,2.90
2022-10-16T13:59:26.073Z,2.60
2022-10-16T14:04:35.000Z,3.30
2022-10-16T14:09:40.563Z,3.30
2022-10-16T14:14:51.314Z,3.10
2022-10-16T14:20:01.062Z,3.60
2022-10-16T14:25:28.155Z,3.00
2022-10-16T14:30:40.263Z,2.90
2022-10-16T14:35:45.584Z,2.70
2022-10-16T14:40:53.764Z,2.80
2022-10-16T14:45:59.055Z,2.70
2022-10-16T14:51:02.975Z,3.60
2022-10-16T14:56:15.819Z,2.60
2022-10-16T15:01:22.719Z,3.30
2022-10-16T15:06:36.129Z,3.10
2022-10-16T15:11:40.187Z,3.20
2022-10-16T15:16:44.886Z,2.90
2022-10-16T15:21:50.850Z,2.90
2022-10-16T15:26:54.747Z,3.00
2022-10-16T15:31:58.770Z,3.20
2022-10-16T15:37:05.054Z,3.50
2022-10-16T15:42:08.810Z,2.80
2022-10-16T15:47:16.499Z,2.50
2022-10-16T15:52:20.323Z,3.10
2022-10-16T15:57:25.220Z,2.80
2022-10-16T16:02:31.692Z,2.80
2022-10-16T16:07:36.391Z,3.30
2022-10-16T16:12:47.465Z,3.00
2022-10-16T16:18:01.953Z,3.90
2022-10-16T16:23:11.819Z,5.40
2022-10-16T16:28:19.699Z,5.20
2022-10-16T16:33:24.821Z,6.10
2022-10-16T16:38:31.643Z,5.30
2022-10-16T16:43:35.774Z,5.20
2022-10-16T16:48:55.950Z,5.60
2022-10-16T16:54:10.027Z,4.80
2022-10-16T16:59:24.583Z,5.30
2022-10-16T17:04:28.823Z,4.90
2022-10-16T17:09:41.670Z,5.10
2022-10-16T17:14:45.687Z,5.50
2022-10-16T17:19:51.889Z,4.90
2022-10-16T17:24:57.434Z,4.60
2022-10-16T17:30:05.400Z,5.60
2022-10-16T17:35:20.986Z,5.00
2022-10-16T17:40:26.316Z,5.50
2022-10-16T17:45:36.497Z,4.80
2022-10-16T17:50:44.104Z,5.30
2022-10-16T17:55:50.079Z,5.50
2022-10-16T18:00:57.903Z,6.20
2022-10-16T18:06:07.253Z,5.50
2022-10-16T18:11:20.701Z,5.10
2022-10-16T18:16:27.989Z,5.60
2022-10-16T18:21:41.840Z,5.40
2022-10-16T18:26:59.000Z,6.20
2022-10-16T18:32:02.413Z,7.30
2022-10-16T18:37:06.033Z,5.70
2022-10-16T18:42:11.214Z,6.80
2022-10-16T18:47:14.922Z,6.80
2022-10-16T18:52:18.749Z,7.30
2022-10-16T18:57:39.771Z,6.70
2022-10-16T19:02:55.206Z,7.20
2022-10-16T19:08:02.160Z,6.70
2022-10-16T19:13:10.961Z,7.50
2022-10-16T19:18:15.341Z,7.40
2022-10-16T19:23:18.903Z,7.00
2022-10-16T19:28:22.829Z,7.90
2022-10-16T19:33:35.848Z,6.90
2022-10-16T19:38:54.774Z,7.30
2022-10-16T19:44:23.089Z,7.50
2022-10-16T19:49:36.748Z,7.80
2022-10-16T19:54:51.438Z,7.20
2022-10-16T20:00:00.283Z,8.10
2022-10-16T20:05:06.340Z,7.30
2022-10-16T20:10:16.309Z,8.00
2022-10-16T20:15:26.582Z,7.60
2022-10-16T20:20:52.439Z,7.40
2022-10-16T20:31:25.415Z,7.70
2022-10-16T20:36:40.223Z,7.40
2022-10-16T20:41:58.891Z,7.50
2022-10-16T20:47:03.021Z,7.60
2022-10-16T20:52:12.487Z,7.70
2022-10-16T20:57:20.503Z,7.60
2022-10-16T21:02:24.949Z,7.80
2022-10-16T21:07:35.446Z,7.50
2022-10-16T21:12:50.831Z,8.00
2022-10-16T21:23:31.742Z,7.60
2022-10-16T21:28:56.234Z,8.50
2022-10-16T21:34:20.136Z,7.60
2022-10-16T21:39:33.457Z,8.00
2022-10-16T21:44:40.600Z,8.70
2022-10-16T21:50:14.148Z,8.00
2022-10-16T21:55:52.209Z,7.80
2022-10-16T22:01:23.089Z,8.50
2022-10-16T22:06:38.005Z,8.00
2022-10-16T22:12:01.074Z,8.40
2022-10-16T22:17:10.671Z,9.30
2022-10-16T22:22:19.890Z,9.60
2022-10-16T22:27:27.523Z,8.00
2022-10-16T22:32:43.950Z,8.70
2022-10-16T22:37:50.396Z,8.00
2022-10-16T22:42:55.715Z,9.20
2022-10-16T22:48:05.016Z,7.90
2022-10-16T22:53:12.782Z,8.20
2022-10-16T22:58:19.315Z,7.70
2022-10-16T23:03:23.280Z,7.60
2022-10-16T23:08:26.972Z,8.10
2022-10-16T23:13:37.253Z,7.40
2022-10-16T23:18:41.375Z,9.60
2022-10-16T23:23:48.789Z,8.60
2022-10-16T23:28:52.816Z,8.30
2022-10-16T23:33:57.965Z,7.80
2022-10-16T23:39:01.910Z,7.90
2022-10-16T23:44:06.864Z,8.30
2022-10-16T23:49:13.763Z,7.20
2022-10-16T23:54:20.362Z,7.20
2022-10-16T23:59:28.479Z,7.30
